sensor_id;sensor_type;location;lat;lon;timestamp;temperature;humidity
13198;DHT22;6664;52.514;13.440;2023-12-29T00:02:30;7.90;77.20
13198;DHT22;6664;52.514;13.440;2023-12-29T00:05:15;8.00;78.50
13198;DHT22;6664;52.514;13.440;2023-12-29T00:08:01;8.00;77.10
13198;DHT22;6664;52.514;13.440;2023-12-29T00:10:48;8.10;76.70
13198;DHT22;6664;52.514;13.440;2023-12-29T00:13:34;8.10;77.10
13198;DHT22;6664;52.514;13.440;2023-12-29T00:16:20;8.20;74.30
13198;DHT22;6664;52.514;13.440;2023-12-29T00:19:08;8.20;74.00
13198;DHT22;6664;52.514;13.440;2023-12-29T00:21:53;8.30;72.70
13198;DHT22;6664;52.514;13.440;2023-12-29T00:24:39;8.20;73.00
13198;DHT22;6664;52.514;13.440;2023-12-29T00:27:28;8.20;73.60
13198;DHT22;6664;52.514;13.440;2023-12-29T00:30:14;8.30;71.50
13198;DHT22;6664;52.514;13.440;2023-12-29T00:33:00;8.20;71.90
13198;DHT22;6664;52.514;13.440;2023-12-29T00:35:45;8.20;72.40
13198;DHT22;6664;52.514;13.440;2023-12-29T00:38:31;8.30;71.30
13198;DHT22;6664;52.514;13.440;2023-12-29T00:41:17;8.30;69.00
13198;DHT22;6664;52.514;13.440;2023-12-29T00:44:03;8.40;68.30
13198;DHT22;6664;52.514;13.440;2023-12-29T00:46:50;8.30;67.30
13198;DHT22;6664;52.514;13.440;2023-12-29T00:49:39;8.30;67.90
13198;DHT22;6664;52.514;13.440;2023-12-29T00:52:25;8.40;66.90
13198;DHT22;6664;52.514;13.440;2023-12-29T00:55:10;8.30;68.00
13198;DHT22;6664;52.514;13.440;2023-12-29T00:57:58;8.20;69.30
13198;DHT22;6664;52.514;13.440;2023-12-29T01:00:47;8.30;68.00
13198;DHT22;6664;52.514;13.440;2023-12-29T01:03:33;8.30;66.60
13198;DHT22;6664;52.514;13.440;2023-12-29T01:06:23;8.20;68.00
13198;DHT22;6664;52.514;13.440;2023-12-29T01:09:08;8.20;66.60
13198;DHT22;6664;52.514;13.440;2023-12-29T01:11:55;8.30;64.70
13198;DHT22;6664;52.514;13.440;2023-12-29T01:14:43;8.30;66.40
13198;DHT22;6664;52.514;13.440;2023-12-29T01:17:29;8.20;65.50
13198;DHT22;6664;52.514;13.440;2023-12-29T01:20:15;8.20;66.50
13198;DHT22;6664;52.514;13.440;2023-12-29T01:23:00;8.20;65.50
13198;DHT22;6664;52.514;13.440;2023-12-29T01:25:46;8.20;64.70
13198;DHT22;6664;52.514;13.440;2023-12-29T01:28:34;8.30;64.60
13198;DHT22;6664;52.514;13.440;2023-12-29T01:31:20;8.20;66.50
13198;DHT22;6664;52.514;13.440;2023-12-29T01:34:06;8.30;63.30
13198;DHT22;6664;52.514;13.440;2023-12-29T01:36:52;8.20;65.60
13198;DHT22;6664;52.514;13.440;2023-12-29T01:39:37;8.20;63.70
13198;DHT22;6664;52.514;13.440;2023-12-29T01:42:22;8.10;66.40
13198;DHT22;6664;52.514;13.440;2023-12-29T01:45:20;8.10;68.40
13198;DHT22;6664;52.514;13.440;2023-12-29T01:48:08;8.10;68.00
13198;DHT22;6664;52.514;13.440;2023-12-29T01:50:54;8.10;66.40
13198;DHT22;6664;52.514;13.440;2023-12-29T01:53:45;8.10;66.50
13198;DHT22;6664;52.514;13.440;2023-12-29T01:56:32;8.00;68.40
13198;DHT22;6664;52.514;13.440;2023-12-29T01:59:19;8.00;69.70
13198;DHT22;6664;52.514;13.440;2023-12-29T02:02:10;7.90;71.20
13198;DHT22;6664;52.514;13.440;2023-12-29T02:04:57;8.10;69.90
13198;DHT22;6664;52.514;13.440;2023-12-29T02:07:43;8.10;69.20
13198;DHT22;6664;52.514;13.440;2023-12-29T02:10:32;8.10;66.50
13198;DHT22;6664;52.514;13.440;2023-12-29T02:13:17;8.20;66.60
13198;DHT22;6664;52.514;13.440;2023-12-29T02:16:12;8.20;65.70
13198;DHT22;6664;52.514;13.440;2023-12-29T02:19:07;8.30;64.60
13198;DHT22;6664;52.514;13.440;2023-12-29T02:21:54;8.30;64.30
13198;DHT22;6664;52.514;13.440;2023-12-29T02:24:48;8.30;64.90
13198;DHT22;6664;52.514;13.440;2023-12-29T02:27:36;8.20;66.30
13198;DHT22;6664;52.514;13.440;2023-12-29T02:30:47;8.20;66.50
13198;DHT22;6664;52.514;13.440;2023-12-29T02:33:40;8.10;67.90
13198;DHT22;6664;52.514;13.440;2023-12-29T02:36:28;8.20;66.60
13198;DHT22;6664;52.514;13.440;2023-12-29T02:39:18;8.10;68.80
13198;DHT22;6664;52.514;13.440;2023-12-29T02:42:04;8.10;69.30
13198;DHT22;6664;52.514;13.440;2023-12-29T02:44:50;8.10;68.70
13198;DHT22;6664;52.514;13.440;2023-12-29T02:47:38;8.00;72.70
13198;DHT22;6664;52.514;13.440;2023-12-29T02:50:24;7.90;73.50
13198;DHT22;6664;52.514;13.440;2023-12-29T02:53:12;8.10;71.80
13198;DHT22;6664;52.514;13.440;2023-12-29T02:55:58;8.30;66.60
13198;DHT22;6664;52.514;13.440;2023-12-29T02:58:43;8.40;64.00
13198;DHT22;6664;52.514;13.440;2023-12-29T03:01:30;8.40;62.40
13198;DHT22;6664;52.514;13.440;2023-12-29T03:04:16;8.40;62.50
13198;DHT22;6664;52.514;13.440;2023-12-29T03:07:02;8.30;62.90
13198;DHT22;6664;52.514;13.440;2023-12-29T03:09:48;8.50;61.50
13198;DHT22;6664;52.514;13.440;2023-12-29T03:12:33;8.60;58.40
13198;DHT22;6664;52.514;13.440;2023-12-29T03:15:19;8.60;58.90
13198;DHT22;6664;52.514;13.440;2023-12-29T03:18:07;8.60;57.20
13198;DHT22;6664;52.514;13.440;2023-12-29T03:20:55;8.60;57.20
13198;DHT22;6664;52.514;13.440;2023-12-29T03:23:43;8.40;58.10
13198;DHT22;6664;52.514;13.440;2023-12-29T03:26:29;8.40;60.30
13198;DHT22;6664;52.514;13.440;2023-12-29T03:29:14;8.40;59.80
13198;DHT22;6664;52.514;13.440;2023-12-29T03:32:02;8.40;60.80
13198;DHT22;6664;52.514;13.440;2023-12-29T03:34:48;8.50;58.00
13198;DHT22;6664;52.514;13.440;2023-12-29T03:37:36;8.60;56.60
13198;DHT22;6664;52.514;13.440;2023-12-29T03:40:23;8.60;56.50
13198;DHT22;6664;52.514;13.440;2023-12-29T03:43:09;8.70;55.20
13198;DHT22;6664;52.514;13.440;2023-12-29T03:45:55;8.80;53.40
13198;DHT22;6664;52.514;13.440;2023-12-29T03:48:42;8.80;53.10
13198;DHT22;6664;52.514;13.440;2023-12-29T03:51:29;8.80;52.40
13198;DHT22;6664;52.514;13.440;2023-12-29T03:54:14;8.70;53.10
13198;DHT22;6664;52.514;13.440;2023-12-29T03:57:00;8.90;50.60
13198;DHT22;6664;52.514;13.440;2023-12-29T03:59:46;9.00;49.70
13198;DHT22;6664;52.514;13.440;2023-12-29T04:02:31;9.00;48.00
13198;DHT22;6664;52.514;13.440;2023-12-29T04:05:17;9.10;46.70
13198;DHT22;6664;52.514;13.440;2023-12-29T04:08:05;9.20;46.30
13198;DHT22;6664;52.514;13.440;2023-12-29T04:10:51;9.10;46.50
13198;DHT22;6664;52.514;13.440;2023-12-29T04:13:40;9.20;44.50
13198;DHT22;6664;52.514;13.440;2023-12-29T04:16:28;9.10;46.00
13198;DHT22;6664;52.514;13.440;2023-12-29T04:19:16;9.00;46.60
13198;DHT22;6664;52.514;13.440;2023-12-29T04:22:02;9.00;47.70
13198;DHT22;6664;52.514;13.440;2023-12-29T04:24:49;8.90;48.10
13198;DHT22;6664;52.514;13.440;2023-12-29T04:27:35;9.00;47.40
13198;DHT22;6664;52.514;13.440;2023-12-29T04:30:21;9.00;48.30
13198;DHT22;6664;52.514;13.440;2023-12-29T04:33:06;9.10;46.70
13198;DHT22;6664;52.514;13.440;2023-12-29T04:35:52;9.00;46.70
13198;DHT22;6664;52.514;13.440;2023-12-29T04:38:39;8.90;47.60
13198;DHT22;6664;52.514;13.440;2023-12-29T04:41:24;9.00;46.70
13198;DHT22;6664;52.514;13.440;2023-12-29T04:44:10;9.00;46.70
13198;DHT22;6664;52.514;13.440;2023-12-29T04:46:55;8.80;50.00
13198;DHT22;6664;52.514;13.440;2023-12-29T04:49:42;8.60;54.30
13198;DHT22;6664;52.514;13.440;2023-12-29T04:52:28;8.50;55.90
13198;DHT22;6664;52.514;13.440;2023-12-29T04:55:14;8.40;58.60
13198;DHT22;6664;52.514;13.440;2023-12-29T04:58:00;8.40;60.70
13198;DHT22;6664;52.514;13.440;2023-12-29T05:00:45;8.40;60.60
13198;DHT22;6664;52.514;13.440;2023-12-29T05:03:31;8.20;63.90
13198;DHT22;6664;52.514;13.440;2023-12-29T05:06:19;8.30;66.40
13198;DHT22;6664;52.514;13.440;2023-12-29T05:09:04;8.40;64.60
13198;DHT22;6664;52.514;13.440;2023-12-29T05:11:50;8.50;62.50
13198;DHT22;6664;52.514;13.440;2023-12-29T05:14:35;8.30;64.00
13198;DHT22;6664;52.514;13.440;2023-12-29T05:17:21;8.40;66.70
13198;DHT22;6664;52.514;13.440;2023-12-29T05:20:07;8.40;67.90
13198;DHT22;6664;52.514;13.440;2023-12-29T05:22:53;8.40;65.70
13198;DHT22;6664;52.514;13.440;2023-12-29T05:25:39;8.40;68.30
13198;DHT22;6664;52.514;13.440;2023-12-29T05:28:25;8.60;64.00
13198;DHT22;6664;52.514;13.440;2023-12-29T05:31:13;8.60;63.10
13198;DHT22;6664;52.514;13.440;2023-12-29T05:33:58;8.90;59.50
13198;DHT22;6664;52.514;13.440;2023-12-29T05:36:46;8.90;58.00
13198;DHT22;6664;52.514;13.440;2023-12-29T05:39:35;9.00;56.80
13198;DHT22;6664;52.514;13.440;2023-12-29T05:42:20;9.00;55.50
13198;DHT22;6664;52.514;13.440;2023-12-29T05:45:09;9.10;54.40
13198;DHT22;6664;52.514;13.440;2023-12-29T05:47:54;9.20;53.10
13198;DHT22;6664;52.514;13.440;2023-12-29T05:50:40;9.20;51.80
13198;DHT22;6664;52.514;13.440;2023-12-29T05:53:25;9.20;51.50
13198;DHT22;6664;52.514;13.440;2023-12-29T05:56:12;9.20;52.30
13198;DHT22;6664;52.514;13.440;2023-12-29T05:58:58;9.10;52.70
13198;DHT22;6664;52.514;13.440;2023-12-29T06:01:44;9.00;53.10
13198;DHT22;6664;52.514;13.440;2023-12-29T06:04:29;9.10;51.40
13198;DHT22;6664;52.514;13.440;2023-12-29T06:07:15;9.10;51.10
13198;DHT22;6664;52.514;13.440;2023-12-29T06:10:00;9.10;50.60
13198;DHT22;6664;52.514;13.440;2023-12-29T06:12:46;9.10;49.70
13198;DHT22;6664;52.514;13.440;2023-12-29T06:15:32;9.10;51.30
13198;DHT22;6664;52.514;13.440;2023-12-29T06:18:18;9.10;49.40
13198;DHT22;6664;52.514;13.440;2023-12-29T06:21:04;9.30;46.90
13198;DHT22;6664;52.514;13.440;2023-12-29T06:23:49;9.30;45.70
13198;DHT22;6664;52.514;13.440;2023-12-29T06:26:35;9.40;44.40
13198;DHT22;6664;52.514;13.440;2023-12-29T06:29:21;9.40;43.40
13198;DHT22;6664;52.514;13.440;2023-12-29T06:32:06;9.40;42.20
13198;DHT22;6664;52.514;13.440;2023-12-29T06:34:52;9.40;41.70
13198;DHT22;6664;52.514;13.440;2023-12-29T06:37:38;9.50;40.30
13198;DHT22;6664;52.514;13.440;2023-12-29T06:40:26;9.60;38.80
13198;DHT22;6664;52.514;13.440;2023-12-29T06:43:11;9.70;37.70
13198;DHT22;6664;52.514;13.440;2023-12-29T06:45:59;9.60;37.60
13198;DHT22;6664;52.514;13.440;2023-12-29T06:48:45;9.70;37.10
13198;DHT22;6664;52.514;13.440;2023-12-29T06:51:31;9.70;36.70
13198;DHT22;6664;52.514;13.440;2023-12-29T06:54:16;9.80;36.00
13198;DHT22;6664;52.514;13.440;2023-12-29T06:57:04;9.80;36.80
13198;DHT22;6664;52.514;13.440;2023-12-29T06:59:49;9.70;36.30
13198;DHT22;6664;52.514;13.440;2023-12-29T07:02:38;9.70;36.60
13198;DHT22;6664;52.514;13.440;2023-12-29T07:05:25;9.60;37.80
13198;DHT22;6664;52.514;13.440;2023-12-29T07:08:13;9.60;38.80
13198;DHT22;6664;52.514;13.440;2023-12-29T07:10:58;9.60;38.00
13198;DHT22;6664;52.514;13.440;2023-12-29T07:13:44;9.80;36.80
13198;DHT22;6664;52.514;13.440;2023-12-29T07:16:30;9.80;35.20
13198;DHT22;6664;52.514;13.440;2023-12-29T07:19:16;9.80;35.60
13198;DHT22;6664;52.514;13.440;2023-12-29T07:22:02;9.90;34.70
13198;DHT22;6664;52.514;13.440;2023-12-29T07:24:48;9.90;34.20
13198;DHT22;6664;52.514;13.440;2023-12-29T07:27:34;9.90;34.20
13198;DHT22;6664;52.514;13.440;2023-12-29T07:30:19;10.00;33.20
13198;DHT22;6664;52.514;13.440;2023-12-29T07:33:05;9.90;33.80
13198;DHT22;6664;52.514;13.440;2023-12-29T07:35:51;10.00;33.10
13198;DHT22;6664;52.514;13.440;2023-12-29T07:38:37;9.90;35.50
13198;DHT22;6664;52.514;13.440;2023-12-29T07:41:22;9.90;34.00
13198;DHT22;6664;52.514;13.440;2023-12-29T07:44:10;10.00;33.00
13198;DHT22;6664;52.514;13.440;2023-12-29T07:46:59;9.90;34.10
13198;DHT22;6664;52.514;13.440;2023-12-29T07:49:47;9.80;36.00
13198;DHT22;6664;52.514;13.440;2023-12-29T07:52:33;9.70;37.90
13198;DHT22;6664;52.514;13.440;2023-12-29T07:55:19;9.60;40.60
13198;DHT22;6664;52.514;13.440;2023-12-29T07:58:04;9.60;40.10
13198;DHT22;6664;52.514;13.440;2023-12-29T08:00:50;9.90;38.00
13198;DHT22;6664;52.514;13.440;2023-12-29T08:03:36;10.00;35.90
13198;DHT22;6664;52.514;13.440;2023-12-29T08:06:24;9.90;36.20
13198;DHT22;6664;52.514;13.440;2023-12-29T08:09:10;10.00;34.50
13198;DHT22;6664;52.514;13.440;2023-12-29T08:11:56;10.00;33.10
13198;DHT22;6664;52.514;13.440;2023-12-29T08:14:41;10.20;31.50
13198;DHT22;6664;52.514;13.440;2023-12-29T08:17:27;10.30;30.10
13198;DHT22;6664;52.514;13.440;2023-12-29T08:20:13;10.30;29.70
13198;DHT22;6664;52.514;13.440;2023-12-29T08:23:02;10.40;29.20
13198;DHT22;6664;52.514;13.440;2023-12-29T08:25:48;10.30;29.70
13198;DHT22;6664;52.514;13.440;2023-12-29T08:28:39;10.20;30.40
13198;DHT22;6664;52.514;13.440;2023-12-29T08:31:25;10.20;30.80
13198;DHT22;6664;52.514;13.440;2023-12-29T08:34:15;10.30;29.80
13198;DHT22;6664;52.514;13.440;2023-12-29T08:37:01;10.40;28.80
13198;DHT22;6664;52.514;13.440;2023-12-29T08:39:47;10.20;30.10
13198;DHT22;6664;52.514;13.440;2023-12-29T08:42:34;10.00;33.00
13198;DHT22;6664;52.514;13.440;2023-12-29T08:45:23;10.00;34.10
13198;DHT22;6664;52.514;13.440;2023-12-29T08:48:08;10.10;33.80
13198;DHT22;6664;52.514;13.440;2023-12-29T08:50:56;10.00;34.40
13198;DHT22;6664;52.514;13.440;2023-12-29T08:53:43;9.90;36.00
13198;DHT22;6664;52.514;13.440;2023-12-29T08:56:29;10.20;32.80
13198;DHT22;6664;52.514;13.440;2023-12-29T08:59:15;10.10;32.00
13198;DHT22;6664;52.514;13.440;2023-12-29T09:02:01;10.10;33.10
13198;DHT22;6664;52.514;13.440;2023-12-29T09:04:48;9.90;36.90
13198;DHT22;6664;52.514;13.440;2023-12-29T09:07:34;9.80;37.50
13198;DHT22;6664;52.514;13.440;2023-12-29T09:10:19;9.80;38.80
13198;DHT22;6664;52.514;13.440;2023-12-29T09:13:08;10.00;37.00
13198;DHT22;6664;52.514;13.440;2023-12-29T09:15:55;10.30;33.30
13198;DHT22;6664;52.514;13.440;2023-12-29T09:18:44;10.50;31.00
13198;DHT22;6664;52.514;13.440;2023-12-29T09:21:32;10.70;28.90
13198;DHT22;6664;52.514;13.440;2023-12-29T09:24:17;10.80;27.40
13198;DHT22;6664;52.514;13.440;2023-12-29T09:27:05;10.80;26.80
13198;DHT22;6664;52.514;13.440;2023-12-29T09:29:51;10.60;28.40
13198;DHT22;6664;52.514;13.440;2023-12-29T09:32:37;10.70;27.50
13198;DHT22;6664;52.514;13.440;2023-12-29T09:35:22;10.80;26.80
13198;DHT22;6664;52.514;13.440;2023-12-29T09:38:08;10.80;26.80
13198;DHT22;6664;52.514;13.440;2023-12-29T09:41:04;11.00;25.00
13198;DHT22;6664;52.514;13.440;2023-12-29T09:43:50;11.20;23.70
13198;DHT22;6664;52.514;13.440;2023-12-29T09:46:42;11.20;22.90
13198;DHT22;6664;52.514;13.440;2023-12-29T09:49:37;11.20;22.90
13198;DHT22;6664;52.514;13.440;2023-12-29T09:52:43;11.10;22.60
13198;DHT22;6664;52.514;13.440;2023-12-29T09:55:31;11.10;23.10
13198;DHT22;6664;52.514;13.440;2023-12-29T09:58:21;11.10;23.40
13198;DHT22;6664;52.514;13.440;2023-12-29T10:01:08;11.10;22.80
13198;DHT22;6664;52.514;13.440;2023-12-29T10:03:53;11.00;23.10
13198;DHT22;6664;52.514;13.440;2023-12-29T10:06:41;11.20;22.70
13198;DHT22;6664;52.514;13.440;2023-12-29T10:09:37;11.20;22.00
13198;DHT22;6664;52.514;13.440;2023-12-29T10:12:24;11.20;21.50
13198;DHT22;6664;52.514;13.440;2023-12-29T10:15:15;11.30;21.60
13198;DHT22;6664;52.514;13.440;2023-12-29T10:21:23;11.40;19.80
13198;DHT22;6664;52.514;13.440;2023-12-29T10:24:21;11.50;18.60
13198;DHT22;6664;52.514;13.440;2023-12-29T10:27:07;11.50;17.60
13198;DHT22;6664;52.514;13.440;2023-12-29T10:29:53;11.70;17.10
13198;DHT22;6664;52.514;13.440;2023-12-29T10:32:39;11.60;16.70
13198;DHT22;6664;52.514;13.440;2023-12-29T10:35:25;11.60;16.30
13198;DHT22;6664;52.514;13.440;2023-12-29T10:38:13;11.60;16.10
13198;DHT22;6664;52.514;13.440;2023-12-29T10:41:15;11.70;15.80
13198;DHT22;6664;52.514;13.440;2023-12-29T10:44:06;11.60;15.60
13198;DHT22;6664;52.514;13.440;2023-12-29T10:46:52;11.60;15.60
13198;DHT22;6664;52.514;13.440;2023-12-29T10:49:40;11.60;15.60
13198;DHT22;6664;52.514;13.440;2023-12-29T10:52:26;11.70;15.40
13198;DHT22;6664;52.514;13.440;2023-12-29T10:55:11;11.70;15.00
13198;DHT22;6664;52.514;13.440;2023-12-29T10:58:00;11.80;14.50
13198;DHT22;6664;52.514;13.440;2023-12-29T11:00:48;11.80;14.70
13198;DHT22;6664;52.514;13.440;2023-12-29T11:03:34;11.80;14.20
13198;DHT22;6664;52.514;13.440;2023-12-29T11:06:29;11.90;13.40
13198;DHT22;6664;52.514;13.440;2023-12-29T11:09:32;11.90;13.50
13198;DHT22;6664;52.514;13.440;2023-12-29T11:12:19;11.90;12.80
13198;DHT22;6664;52.514;13.440;2023-12-29T11:15:06;11.90;12.80
13198;DHT22;6664;52.514;13.440;2023-12-29T11:17:57;11.90;12.00
13198;DHT22;6664;52.514;13.440;2023-12-29T11:20:45;11.90;12.40
13198;DHT22;6664;52.514;13.440;2023-12-29T11:23:31;11.90;11.80
13198;DHT22;6664;52.514;13.440;2023-12-29T11:26:17;11.80;11.00
13198;DHT22;6664;52.514;13.440;2023-12-29T11:29:03;11.80;11.10
13198;DHT22;6664;52.514;13.440;2023-12-29T11:31:50;11.80;11.10
13198;DHT22;6664;52.514;13.440;2023-12-29T11:34:44;11.80;11.10
13198;DHT22;6664;52.514;13.440;2023-12-29T11:40:48;11.80;10.90
13198;DHT22;6664;52.514;13.440;2023-12-29T11:43:36;11.70;11.00
13198;DHT22;6664;52.514;13.440;2023-12-29T11:46:34;11.80;11.50
13198;DHT22;6664;52.514;13.440;2023-12-29T11:49:20;11.80;11.00
13198;DHT22;6664;52.514;13.440;2023-12-29T11:52:06;11.80;10.70
13198;DHT22;6664;52.514;13.440;2023-12-29T11:54:54;11.80;10.80
13198;DHT22;6664;52.514;13.440;2023-12-29T11:57:54;11.80;10.60
13198;DHT22;6664;52.514;13.440;2023-12-29T12:00:44;11.70;10.60
13198;DHT22;6664;52.514;13.440;2023-12-29T12:03:33;11.70;10.80
13198;DHT22;6664;52.514;13.440;2023-12-29T12:06:37;11.70;11.60
13198;DHT22;6664;52.514;13.440;2023-12-29T12:09:23;11.70;12.00
13198;DHT22;6664;52.514;13.440;2023-12-29T12:12:10;11.70;12.50
13198;DHT22;6664;52.514;13.440;2023-12-29T12:14:56;11.80;13.80
13198;DHT22;6664;52.514;13.440;2023-12-29T12:17:44;11.70;14.70
13198;DHT22;6664;52.514;13.440;2023-12-29T12:20:33;11.60;15.70
13198;DHT22;6664;52.514;13.440;2023-12-29T12:23:20;11.50;17.10
13198;DHT22;6664;52.514;13.440;2023-12-29T12:26:07;11.50;18.30
13198;DHT22;6664;52.514;13.440;2023-12-29T12:28:58;11.40;18.70
13198;DHT22;6664;52.514;13.440;2023-12-29T12:31:59;11.40;19.30
13198;DHT22;6664;52.514;13.440;2023-12-29T12:34:44;11.40;22.50
13198;DHT22;6664;52.514;13.440;2023-12-29T12:37:30;11.30;24.60
13198;DHT22;6664;52.514;13.440;2023-12-29T12:40:29;11.20;24.80
13198;DHT22;6664;52.514;13.440;2023-12-29T12:43:17;11.20;25.70
13198;DHT22;6664;52.514;13.440;2023-12-29T12:46:09;11.20;27.10
13198;DHT22;6664;52.514;13.440;2023-12-29T12:48:59;11.10;27.90
13198;DHT22;6664;52.514;13.440;2023-12-29T12:51:46;11.10;29.10
13198;DHT22;6664;52.514;13.440;2023-12-29T12:54:32;11.00;31.50
13198;DHT22;6664;52.514;13.440;2023-12-29T12:57:20;11.00;33.50
13198;DHT22;6664;52.514;13.440;2023-12-29T13:00:07;11.00;35.00
13198;DHT22;6664;52.514;13.440;2023-12-29T13:02:55;10.90;36.80
13198;DHT22;6664;52.514;13.440;2023-12-29T13:05:40;10.90;39.80
13198;DHT22;6664;52.514;13.440;2023-12-29T13:08:26;10.80;41.90
13198;DHT22;6664;52.514;13.440;2023-12-29T13:11:24;10.80;45.30
13198;DHT22;6664;52.514;13.440;2023-12-29T13:14:22;10.80;49.50
13198;DHT22;6664;52.514;13.440;2023-12-29T13:17:14;10.70;53.00
13198;DHT22;6664;52.514;13.440;2023-12-29T13:20:02;10.70;51.70
13198;DHT22;6664;52.514;13.440;2023-12-29T13:22:50;10.70;51.50
13198;DHT22;6664;52.514;13.440;2023-12-29T13:25:40;10.70;51.00
13198;DHT22;6664;52.514;13.440;2023-12-29T13:28:29;10.80;48.80
13198;DHT22;6664;52.514;13.440;2023-12-29T13:31:18;10.90;47.30
13198;DHT22;6664;52.514;13.440;2023-12-29T13:34:18;11.00;46.80
13198;DHT22;6664;52.514;13.440;2023-12-29T13:37:29;11.00;45.70
13198;DHT22;6664;52.514;13.440;2023-12-29T13:40:33;11.00;43.00
13198;DHT22;6664;52.514;13.440;2023-12-29T13:43:21;11.00;42.30
13198;DHT22;6664;52.514;13.440;2023-12-29T13:46:11;11.00;43.30
13198;DHT22;6664;52.514;13.440;2023-12-29T13:48:58;11.00;42.90
13198;DHT22;6664;52.514;13.440;2023-12-29T13:51:43;11.00;42.50
13198;DHT22;6664;52.514;13.440;2023-12-29T13:54:29;11.00;43.90
13198;DHT22;6664;52.514;13.440;2023-12-29T13:57:16;11.00;42.30
13198;DHT22;6664;52.514;13.440;2023-12-29T14:03:06;11.00;41.90
13198;DHT22;6664;52.514;13.440;2023-12-29T14:06:00;10.90;43.20
13198;DHT22;6664;52.514;13.440;2023-12-29T14:08:51;11.00;42.20
13198;DHT22;6664;52.514;13.440;2023-12-29T14:11:46;11.00;43.10
13198;DHT22;6664;52.514;13.440;2023-12-29T14:14:32;11.00;42.00
13198;DHT22;6664;52.514;13.440;2023-12-29T14:17:21;11.00;42.00
13198;DHT22;6664;52.514;13.440;2023-12-29T14:20:33;11.00;42.00
13198;DHT22;6664;52.514;13.440;2023-12-29T14:23:19;11.00;40.40
13198;DHT22;6664;52.514;13.440;2023-12-29T14:26:05;11.10;39.40
13198;DHT22;6664;52.514;13.440;2023-12-29T14:29:08;11.10;38.80
13198;DHT22;6664;52.514;13.440;2023-12-29T14:31:54;11.10;38.00
13198;DHT22;6664;52.514;13.440;2023-12-29T14:34:41;11.00;38.40
13198;DHT22;6664;52.514;13.440;2023-12-29T14:37:27;11.10;36.90
13198;DHT22;6664;52.514;13.440;2023-12-29T14:40:12;11.10;37.00
13198;DHT22;6664;52.514;13.440;2023-12-29T14:42:58;11.10;36.90
13198;DHT22;6664;52.514;13.440;2023-12-29T14:45:48;11.10;37.00
13198;DHT22;6664;52.514;13.440;2023-12-29T14:48:33;11.10;37.00
13198;DHT22;6664;52.514;13.440;2023-12-29T14:51:19;11.20;36.80
13198;DHT22;6664;52.514;13.440;2023-12-29T14:54:04;11.10;37.00
13198;DHT22;6664;52.514;13.440;2023-12-29T14:56:52;11.10;36.90
13198;DHT22;6664;52.514;13.440;2023-12-29T14:59:45;11.10;36.90
13198;DHT22;6664;52.514;13.440;2023-12-29T15:02:31;11.10;37.00
13198;DHT22;6664;52.514;13.440;2023-12-29T15:05:17;11.10;37.00
13198;DHT22;6664;52.514;13.440;2023-12-29T15:08:05;11.00;39.90
13198;DHT22;6664;52.514;13.440;2023-12-29T15:10:51;10.80;45.50
13198;DHT22;6664;52.514;13.440;2023-12-29T15:13:37;10.80;48.10
13198;DHT22;6664;52.514;13.440;2023-12-29T15:16:23;10.70;50.40
13198;DHT22;6664;52.514;13.440;2023-12-29T15:19:11;10.50;51.20
13198;DHT22;6664;52.514;13.440;2023-12-29T15:21:57;10.40;55.80
13198;DHT22;6664;52.514;13.440;2023-12-29T15:24:45;10.30;57.00
13198;DHT22;6664;52.514;13.440;2023-12-29T15:27:30;10.50;52.00
13198;DHT22;6664;52.514;13.440;2023-12-29T15:30:16;10.60;49.70
13198;DHT22;6664;52.514;13.440;2023-12-29T15:33:04;10.80;47.30
13198;DHT22;6664;52.514;13.440;2023-12-29T15:35:51;10.80;51.30
13198;DHT22;6664;52.514;13.440;2023-12-29T15:38:36;10.70;52.60
13198;DHT22;6664;52.514;13.440;2023-12-29T15:41:22;10.60;55.10
13198;DHT22;6664;52.514;13.440;2023-12-29T15:44:10;10.60;57.10
13198;DHT22;6664;52.514;13.440;2023-12-29T15:46:55;10.60;57.20
13198;DHT22;6664;52.514;13.440;2023-12-29T15:49:43;10.60;54.30
13198;DHT22;6664;52.514;13.440;2023-12-29T15:52:29;10.70;54.60
13198;DHT22;6664;52.514;13.440;2023-12-29T15:55:15;10.50;57.00
13198;DHT22;6664;52.514;13.440;2023-12-29T15:58:03;10.40;59.40
13198;DHT22;6664;52.514;13.440;2023-12-29T16:00:50;10.50;57.40
13198;DHT22;6664;52.514;13.440;2023-12-29T16:03:38;10.60;55.90
13198;DHT22;6664;52.514;13.440;2023-12-29T16:06:27;10.60;54.10
13198;DHT22;6664;52.514;13.440;2023-12-29T16:09:14;10.50;56.70
13198;DHT22;6664;52.514;13.440;2023-12-29T16:12:00;10.50;53.90
13198;DHT22;6664;52.514;13.440;2023-12-29T16:14:45;10.60;53.70
13198;DHT22;6664;52.514;13.440;2023-12-29T16:17:31;10.50;53.80
13198;DHT22;6664;52.514;13.440;2023-12-29T16:20:16;10.60;51.30
13198;DHT22;6664;52.514;13.440;2023-12-29T16:23:03;10.60;51.90
13198;DHT22;6664;52.514;13.440;2023-12-29T16:25:49;10.50;52.90
13198;DHT22;6664;52.514;13.440;2023-12-29T16:28:36;10.50;54.20
13198;DHT22;6664;52.514;13.440;2023-12-29T16:31:21;10.50;54.60
13198;DHT22;6664;52.514;13.440;2023-12-29T16:34:07;10.50;55.90
13198;DHT22;6664;52.514;13.440;2023-12-29T16:36:58;10.40;56.60
13198;DHT22;6664;52.514;13.440;2023-12-29T16:39:43;10.60;55.20
13198;DHT22;6664;52.514;13.440;2023-12-29T16:42:29;10.60;55.40
13198;DHT22;6664;52.514;13.440;2023-12-29T16:45:15;10.50;56.60
13198;DHT22;6664;52.514;13.440;2023-12-29T16:48:01;10.40;58.00
13198;DHT22;6664;52.514;13.440;2023-12-29T16:50:48;10.50;59.20
13198;DHT22;6664;52.514;13.440;2023-12-29T16:53:36;10.40;60.50
13198;DHT22;6664;52.514;13.440;2023-12-29T16:56:22;10.30;63.40
13198;DHT22;6664;52.514;13.440;2023-12-29T16:59:08;10.30;66.60
13198;DHT22;6664;52.514;13.440;2023-12-29T17:01:53;10.30;67.50
13198;DHT22;6664;52.514;13.440;2023-12-29T17:04:40;10.20;70.30
13198;DHT22;6664;52.514;13.440;2023-12-29T17:07:27;10.20;72.00
13198;DHT22;6664;52.514;13.440;2023-12-29T17:10:13;10.20;73.90
13198;DHT22;6664;52.514;13.440;2023-12-29T17:13:00;10.20;74.60
13198;DHT22;6664;52.514;13.440;2023-12-29T17:15:46;10.20;76.20
13198;DHT22;6664;52.514;13.440;2023-12-29T17:18:34;10.10;77.60
13198;DHT22;6664;52.514;13.440;2023-12-29T17:21:22;10.00;81.50
13198;DHT22;6664;52.514;13.440;2023-12-29T17:24:08;9.90;84.60
13198;DHT22;6664;52.514;13.440;2023-12-29T17:26:54;9.90;84.40
13198;DHT22;6664;52.514;13.440;2023-12-29T17:29:40;10.00;84.10
13198;DHT22;6664;52.514;13.440;2023-12-29T17:32:27;10.10;81.40
13198;DHT22;6664;52.514;13.440;2023-12-29T17:35:12;10.20;77.60
13198;DHT22;6664;52.514;13.440;2023-12-29T17:37:58;10.30;74.70
13198;DHT22;6664;52.514;13.440;2023-12-29T17:40:44;10.40;73.40
13198;DHT22;6664;52.514;13.440;2023-12-29T17:43:29;10.40;71.20
13198;DHT22;6664;52.514;13.440;2023-12-29T17:46:15;10.50;71.90
13198;DHT22;6664;52.514;13.440;2023-12-29T17:49:01;10.50;71.10
13198;DHT22;6664;52.514;13.440;2023-12-29T17:51:49;10.40;71.90
13198;DHT22;6664;52.514;13.440;2023-12-29T17:54:35;10.30;73.70
13198;DHT22;6664;52.514;13.440;2023-12-29T17:57:24;10.30;73.50